Time;durP1;ratioP1;P1;durP2;ratioP2;P2;SDS_P1;SDS_P2;PMS_P1;PMS_P2;Temp;Humidity;BMP_temperature;BMP_pressure;BME280_temperature;BME280_humidity;BME280_pressure;Samples;Min_cycle;Max_cycle;Signal;HPM_P1;HPM_P2
2024/01/06 00:02:24;;;;;;;26.67;14.68;;;;;;;;;;5075388;28;20764;-66
2024/01/06 00:04:49;;;;;;;25.60;14.65;;;;;;;;;;5066737;28;20030;-66
2024/01/06 00:07:14;;;;;;;28.47;16.10;;;;;;;;;;5071992;28;20024;-66
2024/01/06 00:09:40;;;;;;;23.15;14.25;;;;;;;;;;5057166;28;21168;-66
2024/01/06 00:12:05;;;;;;;27.55;15.45;;;;;;;;;;5070581;28;20044;-66
2024/01/06 00:14:30;;;;;;;26.60;15.35;;;;;;;;;;5069862;28;20035;-66
2024/01/06 00:16:56;;;;;;;30.30;14.83;;;;;;;;;;5068413;28;20162;-66
2024/01/06 00:19:21;;;;;;;23.70;13.95;;;;;;;;;;5072579;28;20309;-66
2024/01/06 00:21:46;;;;;;;23.23;14.27;;;;;;;;;;5074953;28;20057;-66
2024/01/06 00:24:11;;;;;;;29.37;15.57;;;;;;;;;;5072385;28;20376;-66
2024/01/06 00:26:37;;;;;;;21.83;13.05;;;;;;;;;;5078604;28;20392;-66
2024/01/06 00:29:02;;;;;;;26.40;14.27;;;;;;;;;;5080254;28;20138;-66
2024/01/06 00:31:27;;;;;;;23.65;13.90;;;;;;;;;;5079819;28;20043;-68
2024/01/06 00:33:53;;;;;;;21.38;13.88;;;;;;;;;;5066763;28;20057;-66
2024/01/06 00:36:18;;;;;;;22.05;13.48;;;;;;;;;;5076873;28;20043;-66
2024/01/06 00:38:43;;;;;;;21.65;13.07;;;;;;;;;;5073816;28;20020;-67
2024/01/06 00:41:08;;;;;;;26.15;13.18;;;;;;;;;;5074713;28;20024;-67
2024/01/06 00:43:34;;;;;;;22.25;13.32;;;;;;;;;;5076635;28;20027;-67
2024/01/06 00:45:59;;;;;;;22.50;13.40;;;;;;;;;;5080808;28;20032;-67
2024/01/06 00:48:24;;;;;;;21.08;13.05;;;;;;;;;;5072526;28;20035;-67
2024/01/06 00:50:49;;;;;;;21.20;12.40;;;;;;;;;;5075617;28;20020;-67
2024/01/06 00:53:15;;;;;;;16.70;11.43;;;;;;;;;;5073157;28;20289;-66
2024/01/06 00:55:40;;;;;;;17.50;11.40;;;;;;;;;;5065814;28;20288;-66
2024/01/06 00:58:05;;;;;;;18.27;12.60;;;;;;;;;;5073298;28;20282;-66
2024/01/06 01:00:30;;;;;;;24.73;11.07;;;;;;;;;;5076241;28;20278;-66
2024/01/06 01:02:56;;;;;;;19.30;10.82;;;;;;;;;;5075213;28;20035;-66
2024/01/06 01:05:21;;;;;;;16.73;10.90;;;;;;;;;;5066181;28;20035;-66
2024/01/06 01:07:46;;;;;;;19.10;11.10;;;;;;;;;;5072631;28;20020;-66
2024/01/06 01:10:11;;;;;;;14.93;10.18;;;;;;;;;;5069817;28;20054;-66
2024/01/06 01:12:36;;;;;;;13.48;9.52;;;;;;;;;;5077753;28;20085;-66
2024/01/06 01:15:02;;;;;;;13.05;8.48;;;;;;;;;;5076651;28;20032;-66
2024/01/06 01:17:27;;;;;;;15.30;8.38;;;;;;;;;;5070948;28;20505;-67
2024/01/06 01:19:52;;;;;;;15.35;8.88;;;;;;;;;;5063134;28;20862;-67
2024/01/06 01:22:17;;;;;;;12.13;6.80;;;;;;;;;;5070196;28;20166;-67
2024/01/06 01:24:43;;;;;;;14.95;7.82;;;;;;;;;;5073975;28;20274;-66
2024/01/06 01:27:08;;;;;;;14.45;6.82;;;;;;;;;;5069497;28;20102;-66
2024/01/06 01:29:34;;;;;;;12.15;6.50;;;;;;;;;;5067413;28;20865;-66
2024/01/06 01:31:59;;;;;;;11.68;5.78;;;;;;;;;;5067401;28;20066;-66
2024/01/06 01:34:24;;;;;;;13.48;5.97;;;;;;;;;;5071142;28;20045;-66
2024/01/06 01:36:50;;;;;;;10.77;4.90;;;;;;;;;;5060452;28;20033;-66
2024/01/06 01:39:15;;;;;;;8.15;4.95;;;;;;;;;;5068348;28;20266;-66
2024/01/06 01:41:40;;;;;;;9.32;5.55;;;;;;;;;;5069860;28;20143;-66
2024/01/06 01:44:06;;;;;;;10.85;4.85;;;;;;;;;;5067181;28;20032;-66
2024/01/06 01:46:31;;;;;;;11.73;4.72;;;;;;;;;;5075532;28;20386;-67
2024/01/06 01:48:57;;;;;;;8.32;4.45;;;;;;;;;;5074090;28;20028;-66
2024/01/06 01:51:24;;;;;;;10.20;5.18;;;;;;;;;;5065387;28;20102;-66
2024/01/06 01:53:49;;;;;;;8.70;4.68;;;;;;;;;;5048112;28;20037;-65
2024/01/06 01:56:15;;;;;;;7.93;5.07;;;;;;;;;;5063401;28;20300;-65
2024/01/06 01:58:41;;;;;;;12.70;5.53;;;;;;;;;;5074581;28;20036;-65
2024/01/06 02:01:07;;;;;;;7.43;4.95;;;;;;;;;;5064738;28;20967;-65
2024/01/06 02:03:32;;;;;;;12.20;5.57;;;;;;;;;;5064310;28;20020;-65
2024/01/06 02:05:57;;;;;;;9.27;5.50;;;;;;;;;;5065650;28;20047;-65
2024/01/06 02:08:23;;;;;;;10.63;6.37;;;;;;;;;;5067234;28;20040;-65
2024/01/06 02:10:48;;;;;;;11.57;5.78;;;;;;;;;;5065399;28;20308;-65
2024/01/06 02:13:13;;;;;;;11.68;6.10;;;;;;;;;;5067814;28;20036;-65
2024/01/06 02:15:39;;;;;;;14.88;5.60;;;;;;;;;;5066701;28;20054;-65
2024/01/06 02:18:05;;;;;;;10.18;5.55;;;;;;;;;;5070213;28;20025;-67
2024/01/06 02:20:30;;;;;;;10.15;5.82;;;;;;;;;;5070675;28;20149;-67
2024/01/06 02:22:56;;;;;;;9.73;5.55;;;;;;;;;;5061893;28;20016;-67
2024/01/06 02:25:22;;;;;;;11.43;6.13;;;;;;;;;;5076288;28;20035;-67
2024/01/06 02:27:47;;;;;;;11.88;5.65;;;;;;;;;;5072718;28;20040;-67
2024/01/06 02:30:12;;;;;;;9.48;5.15;;;;;;;;;;5079836;28;20185;-67
2024/01/06 02:32:38;;;;;;;7.93;4.90;;;;;;;;;;5075564;28;20051;-67
2024/01/06 02:35:03;;;;;;;10.45;5.43;;;;;;;;;;5077911;28;20107;-67
2024/01/06 02:37:28;;;;;;;8.65;5.28;;;;;;;;;;5074129;28;20866;-67
2024/01/06 02:39:54;;;;;;;10.77;5.90;;;;;;;;;;5070316;28;20429;-67
2024/01/06 02:42:19;;;;;;;11.05;6.72;;;;;;;;;;5060948;28;21114;-67
2024/01/06 02:44:44;;;;;;;10.32;5.72;;;;;;;;;;5056567;28;20028;-67
2024/01/06 02:47:09;;;;;;;11.57;6.80;;;;;;;;;;5070912;28;20058;-66
2024/01/06 02:49:35;;;;;;;17.70;8.03;;;;;;;;;;5071812;28;20365;-67
2024/01/06 02:52:00;;;;;;;10.18;6.85;;;;;;;;;;5066637;28;20342;-66
2024/01/06 02:54:25;;;;;;;14.15;7.63;;;;;;;;;;5068853;28;20599;-66
2024/01/06 02:56:50;;;;;;;13.20;7.73;;;;;;;;;;5071169;28;20379;-67
2024/01/06 02:59:15;;;;;;;13.03;7.93;;;;;;;;;;5076187;28;20771;-69
2024/01/06 03:01:41;;;;;;;16.77;9.03;;;;;;;;;;5070727;28;20662;-67
2024/01/06 03:04:06;;;;;;;17.60;9.32;;;;;;;;;;5068697;28;20857;-66
2024/01/06 03:06:31;;;;;;;18.80;10.93;;;;;;;;;;5068868;28;20537;-67
2024/01/06 03:08:56;;;;;;;19.70;11.60;;;;;;;;;;5065182;28;21060;-67
2024/01/06 03:11:22;;;;;;;20.02;10.52;;;;;;;;;;5062629;28;20046;-67
2024/01/06 03:13:47;;;;;;;25.92;12.00;;;;;;;;;;5069010;28;20490;-66
2024/01/06 03:16:13;;;;;;;18.30;11.35;;;;;;;;;;5063066;28;20080;-66
2024/01/06 03:18:38;;;;;;;17.25;10.85;;;;;;;;;;5068585;28;20042;-66
2024/01/06 03:21:03;;;;;;;18.65;10.43;;;;;;;;;;5067319;28;20115;-66
2024/01/06 03:23:28;;;;;;;21.05;12.32;;;;;;;;;;5068790;28;20518;-66
2024/01/06 03:25:54;;;;;;;21.05;11.40;;;;;;;;;;5067414;28;20058;-66
2024/01/06 03:28:19;;;;;;;22.60;11.50;;;;;;;;;;5076983;28;20016;-66
2024/01/06 03:30:44;;;;;;;21.25;11.52;;;;;;;;;;5076017;28;20312;-66
2024/01/06 03:33:10;;;;;;;21.70;11.30;;;;;;;;;;5073424;28;20036;-66
2024/01/06 03:35:35;;;;;;;22.75;11.02;;;;;;;;;;5071807;28;20923;-68
2024/01/06 03:38:00;;;;;;;17.70;10.82;;;;;;;;;;5074923;28;20028;-66
2024/01/06 03:40:25;;;;;;;19.92;11.38;;;;;;;;;;5068264;28;20024;-66
2024/01/06 03:42:51;;;;;;;19.90;11.02;;;;;;;;;;5063586;28;20043;-66
2024/01/06 03:45:16;;;;;;;18.38;10.40;;;;;;;;;;5069852;28;20054;-66
2024/01/06 03:47:41;;;;;;;20.35;11.40;;;;;;;;;;5073889;28;20024;-66
2024/01/06 03:50:07;;;;;;;22.85;11.93;;;;;;;;;;5074365;28;20035;-66
2024/01/06 03:52:32;;;;;;;22.48;12.05;;;;;;;;;;5070643;28;20108;-66
2024/01/06 03:54:57;;;;;;;20.85;11.85;;;;;;;;;;5074236;28;21339;-65
2024/01/06 03:57:22;;;;;;;19.95;10.88;;;;;;;;;;5075152;28;20134;-65
2024/01/06 03:59:48;;;;;;;17.08;9.77;;;;;;;;;;5079485;28;20606;-65
2024/01/06 04:02:13;;;;;;;18.27;9.93;;;;;;;;;;5080381;28;20530;-66
2024/01/06 04:04:38;;;;;;;17.48;9.63;;;;;;;;;;5070028;28;20266;-65
2024/01/06 04:07:04;;;;;;;15.25;9.30;;;;;;;;;;5076155;28;20035;-65
2024/01/06 04:09:30;;;;;;;14.73;9.00;;;;;;;;;;5071102;28;20055;-66
2024/01/06 04:11:55;;;;;;;16.20;9.00;;;;;;;;;;5070926;28;20498;-66
2024/01/06 04:14:20;;;;;;;15.15;9.30;;;;;;;;;;5072860;28;20129;-67
2024/01/06 04:16:45;;;;;;;14.73;8.65;;;;;;;;;;5074843;28;20039;-67
2024/01/06 04:19:12;;;;;;;18.08;9.73;;;;;;;;;;5074182;28;21453;-67
2024/01/06 04:21:37;;;;;;;14.45;8.68;;;;;;;;;;5063889;28;20962;-67
2024/01/06 04:24:03;;;;;;;16.38;9.77;;;;;;;;;;5074081;28;20020;-67
2024/01/06 04:26:28;;;;;;;17.50;8.82;;;;;;;;;;5064211;28;20028;-67
2024/01/06 04:28:53;;;;;;;15.53;9.97;;;;;;;;;;5062595;28;20028;-67
2024/01/06 04:31:19;;;;;;;17.67;10.15;;;;;;;;;;5065996;28;20309;-67
2024/01/06 04:33:44;;;;;;;17.57;8.47;;;;;;;;;;5062344;28;20036;-67
2024/01/06 04:36:09;;;;;;;16.48;9.60;;;;;;;;;;5052482;28;20325;-67
2024/01/06 04:38:34;;;;;;;19.10;9.50;;;;;;;;;;5066980;28;20111;-67
2024/01/06 04:41:03;;;;;;;18.25;9.88;;;;;;;;;;5071649;28;20135;-67
2024/01/06 04:43:28;;;;;;;20.20;10.75;;;;;;;;;;5073167;28;20551;-67
2024/01/06 04:45:53;;;;;;;20.30;10.27;;;;;;;;;;5072304;28;20028;-67
2024/01/06 04:48:18;;;;;;;18.77;10.80;;;;;;;;;;5073338;28;20904;-67
2024/01/06 04:50:44;;;;;;;19.27;10.70;;;;;;;;;;5071286;28;20847;-67
2024/01/06 04:53:09;;;;;;;18.75;9.55;;;;;;;;;;5067422;28;20378;-66
2024/01/06 04:55:34;;;;;;;16.40;9.87;;;;;;;;;;5068072;28;20024;-66
2024/01/06 04:57:59;;;;;;;19.97;10.67;;;;;;;;;;5070866;28;20315;-67
2024/01/06 05:00:25;;;;;;;20.65;10.52;;;;;;;;;;5071287;28;20404;-67
2024/01/06 05:02:50;;;;;;;17.38;9.80;;;;;;;;;;5073326;28;20178;-67
2024/01/06 05:05:16;;;;;;;14.68;9.38;;;;;;;;;;5079357;28;20028;-66
2024/01/06 05:07:41;;;;;;;20.40;9.93;;;;;;;;;;5078013;28;20690;-66
2024/01/06 05:10:06;;;;;;;19.65;10.70;;;;;;;;;;5066172;28;20036;-66
2024/01/06 05:12:31;;;;;;;15.35;9.38;;;;;;;;;;5077354;28;20036;-66
2024/01/06 05:14:57;;;;;;;15.82;8.93;;;;;;;;;;5068845;28;20060;-66
2024/01/06 05:17:22;;;;;;;17.17;11.07;;;;;;;;;;5067728;28;20032;-66
2024/01/06 05:19:47;;;;;;;15.13;9.80;;;;;;;;;;5069401;28;20038;-66
2024/01/06 05:22:12;;;;;;;15.33;10.27;;;;;;;;;;5071256;28;20274;-66
2024/01/06 05:24:38;;;;;;;18.75;11.18;;;;;;;;;;5067818;28;20304;-65
2024/01/06 05:27:03;;;;;;;16.50;10.15;;;;;;;;;;5070339;28;20024;-65
2024/01/06 05:29:28;;;;;;;17.10;10.23;;;;;;;;;;5070640;28;20036;-65
2024/01/06 05:31:54;;;;;;;17.10;10.40;;;;;;;;;;5074426;28;20851;-64
2024/01/06 05:34:19;;;;;;;17.67;10.10;;;;;;;;;;5071683;28;20442;-64
2024/01/06 05:36:44;;;;;;;16.67;10.30;;;;;;;;;;5070163;28;20031;-66
2024/01/06 05:39:10;;;;;;;14.88;8.90;;;;;;;;;;5070489;28;20058;-64
2024/01/06 05:41:39;;;;;;;16.42;9.25;;;;;;;;;;5071559;28;20036;-67
2024/01/06 05:44:04;;;;;;;14.18;8.60;;;;;;;;;;5076030;28;20070;-66
2024/01/06 05:46:30;;;;;;;18.73;8.65;;;;;;;;;;5071796;28;20040;-66
2024/01/06 05:48:55;;;;;;;17.05;9.55;;;;;;;;;;5066698;28;21127;-68
2024/01/06 05:51:21;;;;;;;17.15;9.70;;;;;;;;;;5066859;28;20056;-66
2024/01/06 05:53:46;;;;;;;14.27;8.60;;;;;;;;;;5065244;28;20039;-66
2024/01/06 05:56:12;;;;;;;12.60;7.60;;;;;;;;;;5065205;28;20069;-67
2024/01/06 05:58:37;;;;;;;14.00;7.90;;;;;;;;;;5074456;28;20039;-66
2024/01/06 06:01:02;;;;;;;13.13;8.25;;;;;;;;;;5073408;28;20813;-66
2024/01/06 06:03:27;;;;;;;14.13;8.55;;;;;;;;;;5074232;28;20043;-66
2024/01/06 06:05:53;;;;;;;14.90;8.55;;;;;;;;;;5074184;28;20768;-66
2024/01/06 06:08:18;;;;;;;12.95;8.57;;;;;;;;;;5069435;28;20050;-67
2024/01/06 06:11:00;;;;;;;12.25;7.80;;;;;;;;;;5063026;28;20733;-66
2024/01/06 06:13:25;;;;;;;15.90;8.48;;;;;;;;;;5073552;28;20054;-66
2024/01/06 06:15:51;;;;;;;14.00;8.77;;;;;;;;;;5068264;28;20028;-67
2024/01/06 06:18:17;;;;;;;13.10;8.43;;;;;;;;;;5061408;28;20282;-67
2024/01/06 06:20:43;;;;;;;13.45;8.60;;;;;;;;;;5065642;28;20020;-67
2024/01/06 06:23:08;;;;;;;13.18;7.40;;;;;;;;;;5067450;28;20053;-67
2024/01/06 06:25:34;;;;;;;12.73;7.88;;;;;;;;;;5072373;28;20020;-66
2024/01/06 06:27:59;;;;;;;14.90;8.90;;;;;;;;;;5076818;28;20135;-67
2024/01/06 06:30:25;;;;;;;14.65;8.80;;;;;;;;;;5074958;28;20143;-67
2024/01/06 06:32:51;;;;;;;13.75;8.27;;;;;;;;;;5073915;28;20123;-66
2024/01/06 06:35:16;;;;;;;14.07;8.63;;;;;;;;;;5074641;28;20394;-67
2024/01/06 06:37:41;;;;;;;15.43;8.70;;;;;;;;;;5075477;28;20032;-67
2024/01/06 06:40:07;;;;;;;14.43;8.57;;;;;;;;;;5069273;28;20028;-67
2024/01/06 06:42:32;;;;;;;14.77;8.93;;;;;;;;;;5057530;28;20052;-67
2024/01/06 06:44:57;;;;;;;15.33;8.67;;;;;;;;;;5064522;28;20143;-67
2024/01/06 06:47:22;;;;;;;15.60;8.50;;;;;;;;;;5065032;28;20270;-66
2024/01/06 06:49:48;;;;;;;16.47;9.50;;;;;;;;;;5067950;28;20052;-66
2024/01/06 06:52:13;;;;;;;13.98;7.95;;;;;;;;;;5068334;28;20369;-66
2024/01/06 06:54:38;;;;;;;16.60;9.98;;;;;;;;;;5064227;28;20020;-66
2024/01/06 06:57:03;;;;;;;14.25;9.27;;;;;;;;;;5069682;28;20073;-66
2024/01/06 06:59:29;;;;;;;14.88;9.30;;;;;;;;;;5075627;28;20024;-66
2024/01/06 07:01:54;;;;;;;11.95;8.25;;;;;;;;;;5071910;28;20039;-65
2024/01/06 07:04:19;;;;;;;14.57;8.95;;;;;;;;;;5069614;28;20024;-67
2024/01/06 07:06:44;;;;;;;13.53;8.07;;;;;;;;;;5068258;28;20937;-66
2024/01/06 07:09:09;;;;;;;12.82;7.95;;;;;;;;;;5069930;28;20771;-65
2024/01/06 07:11:35;;;;;;;13.43;8.23;;;;;;;;;;5071032;28;20087;-66
2024/01/06 07:14:01;;;;;;;12.05;7.72;;;;;;;;;;5072042;28;20389;-66
2024/01/06 07:16:26;;;;;;;13.05;8.13;;;;;;;;;;5063688;28;20046;-66
2024/01/06 07:18:51;;;;;;;12.38;7.75;;;;;;;;;;5082355;28;20451;-66
2024/01/06 07:21:17;;;;;;;15.80;8.38;;;;;;;;;;5084541;28;20038;-66
2024/01/06 07:23:42;;;;;;;12.50;7.63;;;;;;;;;;5087640;28;20036;-66
2024/01/06 07:26:08;;;;;;;11.68;7.57;;;;;;;;;;5085898;28;20043;-66
2024/01/06 07:28:33;;;;;;;15.60;8.48;;;;;;;;;;5087503;28;20055;-66
2024/01/06 07:31:00;;;;;;;11.90;7.85;;;;;;;;;;5086034;28;20481;-66
2024/01/06 07:33:25;;;;;;;15.23;7.43;;;;;;;;;;5087791;28;20043;-66
2024/01/06 07:35:50;;;;;;;11.53;7.17;;;;;;;;;;5083127;28;20036;-66
2024/01/06 07:38:15;;;;;;;10.98;6.63;;;;;;;;;;5088217;28;20274;-66
2024/01/06 07:40:41;;;;;;;9.88;6.18;;;;;;;;;;5085110;28;20397;-66
2024/01/06 07:43:07;;;;;;;10.02;6.45;;;;;;;;;;5087065;28;20028;-66
2024/01/06 07:45:32;;;;;;;11.07;6.72;;;;;;;;;;5070135;28;20027;-66
2024/01/06 07:47:58;;;;;;;10.32;6.72;;;;;;;;;;5081954;28;20069;-66
2024/01/06 07:50:23;;;;;;;11.38;6.53;;;;;;;;;;5083186;28;20127;-66
2024/01/06 07:52:48;;;;;;;11.00;7.25;;;;;;;;;;5079857;28;20173;-66
2024/01/06 07:55:14;;;;;;;11.63;6.55;;;;;;;;;;5085439;28;20020;-66
2024/01/06 07:57:39;;;;;;;11.98;7.22;;;;;;;;;;5087898;28;20028;-66
2024/01/06 08:00:05;;;;;;;11.43;6.73;;;;;;;;;;5087308;28;20172;-66
2024/01/06 08:02:30;;;;;;;11.48;6.45;;;;;;;;;;5086843;28;20369;-66
2024/01/06 08:04:55;;;;;;;11.20;6.63;;;;;;;;;;5084391;28;20032;-66
2024/01/06 08:07:21;;;;;;;10.93;6.45;;;;;;;;;;5084256;28;20036;-66
2024/01/06 08:09:46;;;;;;;9.93;6.30;;;;;;;;;;5080619;28;20044;-66
2024/01/06 08:12:11;;;;;;;11.82;6.75;;;;;;;;;;5080657;28;20077;-66
2024/01/06 08:14:37;;;;;;;9.23;6.25;;;;;;;;;;5085865;28;20719;-66
2024/01/06 08:17:02;;;;;;;10.90;6.53;;;;;;;;;;5087110;28;20028;-66
2024/01/06 08:19:29;;;;;;;10.57;6.00;;;;;;;;;;5086362;28;20066;-66
2024/01/06 08:21:55;;;;;;;11.52;6.93;;;;;;;;;;5085663;28;20640;-66
2024/01/06 08:24:20;;;;;;;9.15;6.38;;;;;;;;;;5085047;28;20039;-66
2024/01/06 08:26:45;;;;;;;9.93;6.35;;;;;;;;;;5079335;28;20020;-66
2024/01/06 08:29:10;;;;;;;10.57;6.30;;;;;;;;;;5087808;28;20040;-66
2024/01/06 08:31:35;;;;;;;9.48;5.80;;;;;;;;;;5086539;28;20262;-65
2024/01/06 08:34:01;;;;;;;10.73;5.57;;;;;;;;;;5088405;28;20034;-66
2024/01/06 08:36:26;;;;;;;13.88;8.90;;;;;;;;;;5082530;28;20052;-66
2024/01/06 08:38:51;;;;;;;12.15;6.93;;;;;;;;;;5086427;28;20020;-66
2024/01/06 08:41:17;;;;;;;13.10;6.75;;;;;;;;;;5081763;28;20055;-66
2024/01/06 08:43:42;;;;;;;15.07;10.02;;;;;;;;;;5082587;28;20059;-67
2024/01/06 08:46:07;;;;;;;10.45;6.72;;;;;;;;;;5066907;28;20035;-66
2024/01/06 08:48:32;;;;;;;18.77;11.10;;;;;;;;;;5063539;28;20239;-66
2024/01/06 08:50:58;;;;;;;13.07;8.43;;;;;;;;;;5080962;28;20024;-66
2024/01/06 08:53:23;;;;;;;16.08;10.65;;;;;;;;;;5081716;28;20294;-66
2024/01/06 08:55:48;;;;;;;16.10;9.45;;;;;;;;;;5056706;28;20032;-66
2024/01/06 08:58:13;;;;;;;13.73;9.50;;;;;;;;;;5091482;28;20049;-66
2024/01/06 09:00:38;;;;;;;14.65;9.77;;;;;;;;;;5068269;28;20028;-65
2024/01/06 09:03:04;;;;;;;13.63;9.85;;;;;;;;;;5082705;28;20099;-66
2024/01/06 09:05:29;;;;;;;13.80;8.75;;;;;;;;;;5086558;28;20060;-66
2024/01/06 09:07:54;;;;;;;12.50;8.02;;;;;;;;;;5088776;28;20386;-66
2024/01/06 09:10:19;;;;;;;9.75;6.30;;;;;;;;;;5058195;28;20032;-66
2024/01/06 09:12:45;;;;;;;11.00;7.67;;;;;;;;;;5079283;28;20051;-66
2024/01/06 09:15:10;;;;;;;9.77;6.45;;;;;;;;;;5085276;28;20309;-66
2024/01/06 09:17:36;;;;;;;8.27;5.20;;;;;;;;;;5087621;28;20027;-66
2024/01/06 09:20:01;;;;;;;9.27;5.30;;;;;;;;;;5079442;28;20470;-66
2024/01/06 09:22:27;;;;;;;8.85;5.43;;;;;;;;;;5082590;28;20035;-66
2024/01/06 09:24:52;;;;;;;7.53;4.85;;;;;;;;;;5085315;28;20393;-66
2024/01/06 09:27:18;;;;;;;8.52;5.55;;;;;;;;;;5064387;28;20028;-66
2024/01/06 09:29:43;;;;;;;9.35;5.72;;;;;;;;;;5078553;28;20028;-66
2024/01/06 09:32:08;;;;;;;8.45;5.00;;;;;;;;;;5081266;28;20475;-66
2024/01/06 09:34:34;;;;;;;10.88;5.50;;;;;;;;;;5091941;28;20052;-66
2024/01/06 09:36:59;;;;;;;9.27;5.22;;;;;;;;;;5089872;28;20096;-66
2024/01/06 09:39:24;;;;;;;10.68;4.68;;;;;;;;;;5079631;28;20093;-67
2024/01/06 09:41:50;;;;;;;9.73;5.65;;;;;;;;;;5089400;28;20020;-66
2024/01/06 09:44:15;;;;;;;8.45;5.07;;;;;;;;;;5090844;28;20126;-66
2024/01/06 09:46:41;;;;;;;8.73;5.78;;;;;;;;;;5091320;28;20036;-66
2024/01/06 09:49:08;;;;;;;11.02;6.35;;;;;;;;;;5090311;28;20478;-66
2024/01/06 09:51:35;;;;;;;8.13;5.47;;;;;;;;;;5087401;28;20089;-66
2024/01/06 09:54:02;;;;;;;8.18;5.60;;;;;;;;;;5091972;28;20502;-66
2024/01/06 09:56:28;;;;;;;10.43;5.97;;;;;;;;;;5090387;28;20828;-67
2024/01/06 09:58:54;;;;;;;9.63;5.30;;;;;;;;;;5091810;28;20111;-67
2024/01/06 10:01:19;;;;;;;9.65;4.85;;;;;;;;;;5073864;28;20103;-67
2024/01/06 10:03:48;;;;;;;10.70;6.07;;;;;;;;;;5091751;28;20024;-67
2024/01/06 10:06:13;;;;;;;11.98;6.53;;;;;;;;;;5090448;28;20047;-67
2024/01/06 10:08:41;;;;;;;8.73;5.70;;;;;;;;;;5091486;28;20039;-66
2024/01/06 10:11:10;;;;;;;7.30;4.60;;;;;;;;;;5085166;28;20073;-66
2024/01/06 10:13:35;;;;;;;10.07;6.15;;;;;;;;;;5083799;28;20043;-67
2024/01/06 10:16:02;;;;;;;8.13;5.30;;;;;;;;;;5084978;28;20052;-67
2024/01/06 10:18:29;;;;;;;8.55;4.93;;;;;;;;;;5053143;28;20031;-67
2024/01/06 10:20:54;;;;;;;10.77;5.35;;;;;;;;;;5084515;28;20027;-66
2024/01/06 10:23:21;;;;;;;10.38;5.68;;;;;;;;;;5055764;28;21383;-67
2024/01/06 10:25:47;;;;;;;9.05;5.80;;;;;;;;;;5066334;28;20038;-67
2024/01/06 10:28:15;;;;;;;8.20;5.30;;;;;;;;;;5044457;28;20098;-67
2024/01/06 10:30:40;;;;;;;8.38;4.47;;;;;;;;;;5057814;28;20289;-67
2024/01/06 10:33:09;;;;;;;6.97;4.55;;;;;;;;;;5081707;28;20032;-67
2024/01/06 10:35:36;;;;;;;11.93;7.15;;;;;;;;;;5071679;28;20027;-66
2024/01/06 10:38:01;;;;;;;8.25;5.35;;;;;;;;;;5081449;28;20561;-66
2024/01/06 10:40:26;;;;;;;8.98;5.07;;;;;;;;;;5088302;28;20127;-66
2024/01/06 10:42:52;;;;;;;7.15;4.25;;;;;;;;;;5083721;28;20032;-66
2024/01/06 10:45:17;;;;;;;10.25;6.20;;;;;;;;;;5065800;28;20016;-66
2024/01/06 10:47:43;;;;;;;6.88;3.88;;;;;;;;;;5083403;28;20102;-66
2024/01/06 10:50:09;;;;;;;8.27;4.78;;;;;;;;;;5075414;28;20020;-66
2024/01/06 10:52:35;;;;;;;7.03;4.30;;;;;;;;;;5069160;28;20032;-67
2024/01/06 10:55:01;;;;;;;7.18;4.47;;;;;;;;;;5069150;28;20394;-66
2024/01/06 10:57:28;;;;;;;7.28;4.78;;;;;;;;;;5067514;28;20020;-67
2024/01/06 10:59:53;;;;;;;7.68;4.80;;;;;;;;;;5073407;28;20020;-66
2024/01/06 11:02:19;;;;;;;8.88;4.90;;;;;;;;;;5077530;28;20040;-68
2024/01/06 11:04:45;;;;;;;8.45;4.60;;;;;;;;;;5057977;28;20028;-67
2024/01/06 11:07:11;;;;;;;7.07;4.93;;;;;;;;;;5078342;28;20137;-68
2024/01/06 11:09:39;;;;;;;8.52;4.50;;;;;;;;;;5082004;28;20506;-68
2024/01/06 11:12:06;;;;;;;9.15;5.28;;;;;;;;;;5060048;28;20474;-67
2024/01/06 11:14:37;;;;;;;5.95;3.90;;;;;;;;;;5073180;28;20109;-66
2024/01/06 11:17:02;;;;;;;9.23;5.15;;;;;;;;;;5077033;28;20093;-66
2024/01/06 11:19:33;;;;;;;7.07;4.43;;;;;;;;;;5084039;28;20470;-66
2024/01/06 11:22:18;;;;;;;9.40;5.85;;;;;;;;;;5076726;28;20060;-67
2024/01/06 11:24:47;;;;;;;8.25;5.60;;;;;;;;;;5079882;28;20032;-66
2024/01/06 11:27:17;;;;;;;8.88;5.43;;;;;;;;;;5052736;28;21018;-66
2024/01/06 11:29:43;;;;;;;11.93;6.70;;;;;;;;;;5065726;28;20897;-67
2024/01/06 11:32:24;;;;;;;9.27;5.18;;;;;;;;;;5069675;28;20027;-67
2024/01/06 11:34:54;;;;;;;12.48;6.47;;;;;;;;;;5089389;28;20115;-65
2024/01/06 11:37:23;;;;;;;13.70;6.20;;;;;;;;;;5077225;28;20027;-66
2024/01/06 11:39:49;;;;;;;8.15;5.18;;;;;;;;;;5072734;28;20077;-66
2024/01/06 11:42:15;;;;;;;9.70;5.88;;;;;;;;;;5080786;28;20474;-67
2024/01/06 11:44:43;;;;;;;10.70;6.47;;;;;;;;;;5076626;28;20035;-66
2024/01/06 11:47:11;;;;;;;12.40;6.28;;;;;;;;;;5028480;28;20028;-66
2024/01/06 11:49:37;;;;;;;12.27;6.65;;;;;;;;;;5077920;28;20043;-66
2024/01/06 11:52:02;;;;;;;11.77;6.57;;;;;;;;;;5050230;28;20032;-66
2024/01/06 11:54:27;;;;;;;11.20;6.35;;;;;;;;;;5068198;28;20375;-66
2024/01/06 11:56:57;;;;;;;10.95;6.88;;;;;;;;;;5070733;28;20070;-66
2024/01/06 11:59:22;;;;;;;11.77;6.47;;;;;;;;;;5050174;28;20090;-65
2024/01/06 12:01:47;;;;;;;13.13;6.50;;;;;;;;;;5048765;28;20020;-66
2024/01/06 12:04:13;;;;;;;10.73;7.40;;;;;;;;;;5056310;28;20026;-67
2024/01/06 12:06:39;;;;;;;9.63;5.53;;;;;;;;;;5054440;28;20024;-67
2024/01/06 12:09:07;;;;;;;10.00;6.22;;;;;;;;;;5044800;28;20024;-66
2024/01/06 12:11:33;;;;;;;11.18;6.40;;;;;;;;;;5043243;28;20044;-66
2024/01/06 12:13:58;;;;;;;11.18;6.85;;;;;;;;;;5065978;28;20150;-66
2024/01/06 12:16:27;;;;;;;12.00;6.43;;;;;;;;;;5047462;28;20863;-66
2024/01/06 12:18:55;;;;;;;10.02;6.75;;;;;;;;;;5050296;28;20031;-66
2024/01/06 12:21:20;;;;;;;11.32;6.35;;;;;;;;;;5046264;28;20208;-65
2024/01/06 12:23:46;;;;;;;13.35;8.45;;;;;;;;;;5046838;28;20556;-66
2024/01/06 12:26:12;;;;;;;12.00;7.38;;;;;;;;;;5047347;28;20043;-66
2024/01/06 12:28:37;;;;;;;11.98;7.65;;;;;;;;;;5063087;28;20020;-66
2024/01/06 12:31:04;;;;;;;11.83;7.90;;;;;;;;;;5051104;28;20139;-66
2024/01/06 12:33:31;;;;;;;13.02;7.72;;;;;;;;;;5060180;28;20329;-66
2024/01/06 12:35:56;;;;;;;14.15;7.55;;;;;;;;;;5049749;28;20024;-65
2024/01/06 12:38:21;;;;;;;14.00;7.55;;;;;;;;;;5054775;28;20024;-65
2024/01/06 12:40:46;;;;;;;13.93;7.40;;;;;;;;;;5047857;28;21663;-66
2024/01/06 12:43:12;;;;;;;13.00;7.27;;;;;;;;;;5059605;28;20020;-65
2024/01/06 12:45:37;;;;;;;8.80;6.93;;;;;;;;;;5050406;28;20282;-65
2024/01/06 12:48:02;;;;;;;10.65;7.38;;;;;;;;;;5053065;28;20806;-66
2024/01/06 12:50:28;;;;;;;10.07;6.38;;;;;;;;;;5044559;28;20036;-66
2024/01/06 12:52:53;;;;;;;12.18;7.15;;;;;;;;;;5053517;28;20016;-64
2024/01/06 12:55:18;;;;;;;10.50;7.25;;;;;;;;;;5045421;28;20028;-63
2024/01/06 12:57:44;;;;;;;14.20;7.20;;;;;;;;;;5046270;28;20032;-64
2024/01/06 13:00:11;;;;;;;9.82;6.13;;;;;;;;;;5049017;28;20031;-66
2024/01/06 13:02:37;;;;;;;9.45;6.32;;;;;;;;;;5047142;28;20020;-64
2024/01/06 13:05:02;;;;;;;9.75;6.32;;;;;;;;;;5050101;28;20893;-67
2024/01/06 13:07:27;;;;;;;11.82;6.60;;;;;;;;;;5047325;28;20912;-67
2024/01/06 13:09:53;;;;;;;10.63;6.63;;;;;;;;;;5056617;28;20896;-67
2024/01/06 13:12:18;;;;;;;11.23;6.88;;;;;;;;;;5038795;28;20060;-68
2024/01/06 13:14:44;;;;;;;8.88;6.45;;;;;;;;;;5047588;28;20036;-67
2024/01/06 13:17:09;;;;;;;11.10;7.10;;;;;;;;;;5054287;28;20664;-67
2024/01/06 13:19:35;;;;;;;11.55;6.95;;;;;;;;;;5051518;28;20127;-68
2024/01/06 13:22:00;;;;;;;10.20;7.13;;;;;;;;;;5068119;28;20024;-65
2024/01/06 13:24:25;;;;;;;9.73;6.28;;;;;;;;;;5061210;28;20441;-65
2024/01/06 13:26:51;;;;;;;10.60;5.97;;;;;;;;;;5048510;28;20612;-72
2024/01/06 13:29:17;;;;;;;9.70;6.13;;;;;;;;;;5042389;28;20023;-66
2024/01/06 13:31:44;;;;;;;9.38;6.70;;;;;;;;;;5047559;28;20047;-65
2024/01/06 13:34:09;;;;;;;17.95;9.20;;;;;;;;;;5051857;28;20023;-65
2024/01/06 13:36:34;;;;;;;10.88;6.65;;;;;;;;;;5047781;28;20123;-65
2024/01/06 13:38:59;;;;;;;10.45;6.15;;;;;;;;;;5052736;28;20442;-66
2024/01/06 13:41:25;;;;;;;8.70;6.22;;;;;;;;;;5051541;28;20028;-65
2024/01/06 13:43:50;;;;;;;9.93;6.38;;;;;;;;;;5057328;28;20079;-67
2024/01/06 13:46:16;;;;;;;8.93;5.82;;;;;;;;;;5046883;28;20934;-65
2024/01/06 13:48:41;;;;;;;8.90;6.05;;;;;;;;;;5047279;28;20031;-65
2024/01/06 13:51:07;;;;;;;13.73;5.45;;;;;;;;;;5059246;28;20020;-65
2024/01/06 13:53:32;;;;;;;9.35;5.85;;;;;;;;;;5053633;28;20027;-65
2024/01/06 13:55:57;;;;;;;11.23;6.47;;;;;;;;;;5048537;28;20123;-66
2024/01/06 13:58:23;;;;;;;11.18;6.00;;;;;;;;;;5047451;28;20925;-66
2024/01/06 14:00:48;;;;;;;10.98;6.07;;;;;;;;;;5046833;28;20086;-64
2024/01/06 14:03:13;;;;;;;9.98;6.10;;;;;;;;;;5051292;28;20043;-67
2024/01/06 14:05:39;;;;;;;6.80;5.03;;;;;;;;;;5045768;28;20058;-66
2024/01/06 14:08:05;;;;;;;9.52;5.38;;;;;;;;;;5044218;28;20521;-65
2024/01/06 14:10:31;;;;;;;9.80;5.22;;;;;;;;;;5055689;28;20024;-65
2024/01/06 14:12:56;;;;;;;9.10;5.82;;;;;;;;;;5051335;28;20089;-66
2024/01/06 14:15:22;;;;;;;8.15;5.53;;;;;;;;;;5045763;28;20274;-65
2024/01/06 14:17:49;;;;;;;7.97;4.40;;;;;;;;;;5046619;28;20016;-66
2024/01/06 14:20:17;;;;;;;7.40;4.47;;;;;;;;;;5049493;28;20277;-64
2024/01/06 14:22:42;;;;;;;8.07;4.28;;;;;;;;;;5046541;28;20862;-65